Time;durP1;ratioP1;P1;durP2;ratioP2;P2;SDS_P1;SDS_P2;PMS_P1;PMS_P2;Temp;Humidity;BMP_temperature;BMP_pressure;BME280_temperature;BME280_humidity;BME280_pressure;Samples;Min_cycle;Max_cycle;Signal;HPM_P1;HPM_P2
2021/07/31 00:01:51;;;;;;;11.68;3.72;;;16.00;77.30;;;;;;5092984;28;20052;-92
2021/07/31 00:04:18;;;;;;;18.40;3.63;;;15.90;77.30;;;;;;5095931;28;20052;-92
2021/07/31 00:06:45;;;;;;;12.98;3.55;;;15.90;77.40;;;;;;5094896;28;20044;-88
2021/07/31 00:09:12;;;;;;;12.77;3.33;;;15.90;77.60;;;;;;5095544;28;20044;-93
2021/07/31 00:11:38;;;;;;;8.32;3.03;;;15.90;77.60;;;;;;5095534;28;20432;-93
2021/07/31 00:14:06;;;;;;;17.35;4.22;;;15.90;77.70;;;;;;5103664;28;20040;-92
2021/07/31 00:16:33;;;;;;;14.23;3.75;;;15.90;77.80;;;;;;5102428;28;20044;-91
2021/07/31 00:19:00;;;;;;;15.70;3.35;;;15.90;77.80;;;;;;5095237;28;20505;-92
2021/07/31 00:21:27;;;;;;;8.82;3.38;;;15.90;77.80;;;;;;5095339;28;20044;-93
2021/07/31 00:23:53;;;;;;;10.40;3.85;;;15.90;77.80;;;;;;5097621;28;20105;-90
2021/07/31 00:26:20;;;;;;;13.60;3.42;;;15.90;77.90;;;;;;5096280;28;20068;-95
2021/07/31 00:28:47;;;;;;;13.43;3.60;;;15.90;78.00;;;;;;5095874;28;20056;-91
2021/07/31 00:31:14;;;;;;;16.10;4.15;;;15.90;78.10;;;;;;5100410;28;20047;-92
2021/07/31 00:33:41;;;;;;;12.25;3.33;;;15.80;78.20;;;;;;5096859;28;20502;-94
2021/07/31 00:36:08;;;;;;;9.00;3.33;;;15.90;78.40;;;;;;5096730;28;20106;-92
2021/07/31 00:38:35;;;;;;;11.57;3.67;;;15.90;78.50;;;;;;5095550;28;20056;-90
2021/07/31 00:41:02;;;;;;;14.63;3.78;;;15.90;78.70;;;;;;5095093;28;20056;-93
2021/07/31 00:43:29;;;;;;;13.57;4.03;;;15.80;79.00;;;;;;5095748;28;20502;-89
2021/07/31 00:45:56;;;;;;;10.43;3.33;;;15.90;79.20;;;;;;5092582;28;20490;-92
2021/07/31 00:48:23;;;;;;;15.38;3.75;;;15.80;79.20;;;;;;5094045;28;20044;-93
2021/07/31 00:50:50;;;;;;;12.82;3.67;;;15.90;79.20;;;;;;5093839;28;20052;-92
2021/07/31 00:53:18;;;;;;;15.15;4.47;;;15.90;79.40;;;;;;5094440;28;20048;-90
2021/07/31 00:55:45;;;;;;;16.33;3.90;;;15.90;79.50;;;;;;5094164;28;20056;-89
2021/07/31 00:58:12;;;;;;;18.60;4.18;;;15.90;79.40;;;;;;5096467;28;20052;-92
2021/07/31 01:00:39;;;;;;;12.43;3.65;;;15.80;79.50;;;;;;5093507;28;20058;-92
2021/07/31 01:03:06;;;;;;;11.05;3.78;;;15.80;79.50;;;;;;5094558;28;20528;-93
2021/07/31 01:05:34;;;;;;;15.07;4.15;;;15.80;79.50;;;;;;5097077;28;20051;-95
2021/07/31 01:08:02;;;;;;;14.50;3.55;;;15.80;79.60;;;;;;5095143;28;20044;-94
2021/07/31 01:10:31;;;;;;;14.00;3.60;;;15.80;79.60;;;;;;5100410;28;20044;-92
2021/07/31 01:13:00;;;;;;;12.07;4.07;;;15.80;79.80;;;;;;5100297;28;20047;-95
2021/07/31 01:15:27;;;;;;;14.48;3.67;;;15.80;79.80;;;;;;5097723;28;20051;-88
2021/07/31 01:17:53;;;;;;;9.07;3.33;;;15.80;80.00;;;;;;5094829;28;20047;-94
2021/07/31 01:20:21;;;;;;;17.63;3.97;;;15.90;80.10;;;;;;5094902;28;20043;-95
2021/07/31 01:22:47;;;;;;;13.85;4.13;;;15.80;80.10;;;;;;5099444;28;20048;-94
2021/07/31 01:25:14;;;;;;;14.02;3.70;;;15.90;80.20;;;;;;5098221;28;20052;-95
2021/07/31 01:27:42;;;;;;;15.55;3.75;;;15.80;80.30;;;;;;5100974;28;20048;-94
2021/07/31 01:30:09;;;;;;;13.07;3.80;;;15.80;80.30;;;;;;5103315;28;20070;-96
2021/07/31 01:32:36;;;;;;;13.98;4.22;;;15.80;80.30;;;;;;5107648;28;20040;-94
2021/07/31 01:35:04;;;;;;;13.02;4.00;;;15.80;80.40;;;;;;5101763;28;20513;-91
2021/07/31 01:37:31;;;;;;;15.35;4.00;;;15.80;80.40;;;;;;5098088;28;20048;-94
2021/07/31 01:39:58;;;;;;;15.90;4.05;;;15.80;80.40;;;;;;5102540;28;20031;-96
2021/07/31 01:42:26;;;;;;;17.35;4.30;;;15.70;80.50;;;;;;5101524;28;20048;-95
2021/07/31 01:44:52;;;;;;;13.43;4.22;;;15.80;80.60;;;;;;5101124;28;20047;-94
2021/07/31 01:47:19;;;;;;;11.57;3.90;;;15.80;80.60;;;;;;5098389;28;20032;-92
2021/07/31 01:49:46;;;;;;;16.00;4.60;;;15.70;80.60;;;;;;5098676;28;20052;-93
2021/07/31 01:52:13;;;;;;;17.13;5.10;;;15.70;80.70;;;;;;5104295;28;20040;-93
2021/07/31 01:54:40;;;;;;;16.38;4.38;;;15.70;80.80;;;;;;5101129;28;20063;-93
2021/07/31 01:57:07;;;;;;;10.55;4.05;;;15.80;80.90;;;;;;5101304;28;20077;-94
2021/07/31 01:59:33;;;;;;;11.13;3.50;;;15.70;80.90;;;;;;5095043;28;20051;-94
2021/07/31 02:02:00;;;;;;;16.50;4.63;;;15.80;80.90;;;;;;5098311;28;20050;-94
2021/07/31 02:04:27;;;;;;;14.27;4.22;;;15.70;81.10;;;;;;5101297;28;20055;-91
2021/07/31 02:06:54;;;;;;;18.70;4.65;;;15.80;81.10;;;;;;5092153;28;20520;-92
2021/07/31 02:09:21;;;;;;;12.85;4.10;;;15.80;81.10;;;;;;5092607;28;20525;-92
2021/07/31 02:11:48;;;;;;;15.45;4.10;;;15.80;81.10;;;;;;5095285;28;20093;-93
2021/07/31 02:14:15;;;;;;;11.13;3.75;;;15.80;81.10;;;;;;5094209;28;20044;-92
2021/07/31 02:16:42;;;;;;;17.33;4.80;;;15.80;81.10;;;;;;5093293;28;20044;-93
2021/07/31 02:19:09;;;;;;;16.95;4.75;;;15.80;81.10;;;;;;5092764;28;20051;-92
2021/07/31 02:21:36;;;;;;;14.77;4.10;;;15.80;81.10;;;;;;5092524;28;20433;-93
2021/07/31 02:24:04;;;;;;;19.52;4.53;;;15.80;81.10;;;;;;5093005;28;20044;-90
2021/07/31 02:26:30;;;;;;;10.60;4.05;;;15.80;81.10;;;;;;5092084;28;20044;-89
2021/07/31 02:28:57;;;;;;;16.60;4.80;;;15.80;81.10;;;;;;5091959;28;20060;-91
2021/07/31 02:31:24;;;;;;;12.48;4.20;;;15.80;81.10;;;;;;5090004;28;20048;-91
2021/07/31 02:33:51;;;;;;;14.63;4.22;;;15.80;81.10;;;;;;5092168;28;20139;-91
2021/07/31 02:36:18;;;;;;;14.43;4.95;;;15.80;81.10;;;;;;5091691;28;20456;-91
2021/07/31 02:38:45;;;;;;;16.75;4.57;;;15.80;81.10;;;;;;5090361;28;20048;-89
2021/07/31 02:41:12;;;;;;;11.88;3.85;;;15.80;81.10;;;;;;5090191;28;20414;-92
2021/07/31 02:43:39;;;;;;;12.75;4.35;;;15.80;81.20;;;;;;5092659;28;20048;-92
2021/07/31 02:46:08;;;;;;;15.70;4.10;;;15.80;81.20;;;;;;5092668;28;20422;-93
2021/07/31 02:48:37;;;;;;;17.52;4.88;;;15.80;81.30;;;;;;5091421;28;20044;-91
2021/07/31 02:51:06;;;;;;;18.48;4.38;;;15.90;81.30;;;;;;5092309;28;20044;-92
2021/07/31 02:53:33;;;;;;;16.50;4.90;;;15.90;81.40;;;;;;5093440;28;20043;-92
2021/07/31 02:56:00;;;;;;;14.65;4.43;;;15.90;81.40;;;;;;5094578;28;20048;-93
2021/07/31 02:58:27;;;;;;;10.07;3.72;;;15.80;81.40;;;;;;5097127;28;20058;-91
2021/07/31 03:00:54;;;;;;;15.05;4.60;;;15.90;81.40;;;;;;5093585;28;20044;-94
2021/07/31 03:03:22;;;;;;;15.63;4.30;;;15.90;81.40;;;;;;5095505;28;20067;-93
2021/07/31 03:05:56;;;;;;;19.17;5.07;;;15.90;81.50;;;;;;5096247;28;20052;-95
2021/07/31 03:08:23;;;;;;;13.63;4.40;;;15.90;81.50;;;;;;5095082;28;20051;-94
2021/07/31 03:10:57;;;;;;;13.85;4.05;;;15.90;81.60;;;;;;5095762;28;20056;-92
2021/07/31 03:13:24;;;;;;;;;;;15.90;81.60;;;;;;5091633;28;20055;-91
2021/07/31 03:15:54;;;;;;;14.02;3.95;;;15.90;81.60;;;;;;5091588;28;20382;-93
2021/07/31 03:18:22;;;;;;;11.65;4.03;;;15.90;81.60;;;;;;5093583;28;20048;-95
2021/07/31 03:20:50;;;;;;;12.55;4.10;;;15.80;81.60;;;;;;5091475;28;20044;-95
2021/07/31 03:23:20;;;;;;;13.48;4.40;;;15.80;81.60;;;;;;5093669;28;20044;-90
2021/07/31 03:25:47;;;;;;;13.98;4.22;;;15.90;81.60;;;;;;5092323;28;20044;-93
2021/07/31 03:28:14;;;;;;;16.10;4.50;;;15.80;81.60;;;;;;5095978;28;20055;-93
2021/07/31 03:30:43;;;;;;;11.93;4.13;;;15.80;81.60;;;;;;5093243;28;20103;-94
2021/07/31 03:33:11;;;;;;;14.45;4.45;;;15.80;81.70;;;;;;5093697;28;20052;-93
2021/07/31 03:35:40;;;;;;;12.02;3.90;;;15.80;81.70;;;;;;5093044;28;20047;-94
2021/07/31 03:38:08;;;;;;;13.30;4.45;;;15.80;81.70;;;;;;5090592;28;20055;-95
2021/07/31 03:40:35;;;;;;;13.27;4.28;;;15.80;81.70;;;;;;5093946;28;20048;-92
2021/07/31 03:43:03;;;;;;;17.30;4.57;;;15.80;81.70;;;;;;5095148;28;20101;-94
2021/07/31 03:45:30;;;;;;;14.57;4.10;;;15.80;81.70;;;;;;5092045;28;20055;-93
2021/07/31 03:47:57;;;;;;;13.15;4.25;;;15.80;81.70;;;;;;5092318;28;20044;-90
2021/07/31 03:50:24;;;;;;;15.00;4.28;;;15.80;81.70;;;;;;5091168;28;20040;-91
2021/07/31 03:52:51;;;;;;;13.93;4.45;;;15.80;81.70;;;;;;5091492;28;20047;-93
2021/07/31 03:55:18;;;;;;;18.50;4.50;;;15.80;81.70;;;;;;5094299;28;20521;-89
2021/07/31 03:57:45;;;;;;;16.48;4.80;;;15.70;81.70;;;;;;5092111;28;20468;-94
2021/07/31 04:00:12;;;;;;;11.73;4.03;;;15.70;81.80;;;;;;5090226;28;20048;-95
2021/07/31 04:02:39;;;;;;;16.85;4.38;;;15.70;81.80;;;;;;5091204;28;20536;-93
2021/07/31 04:05:06;;;;;;;22.50;4.72;;;15.70;81.80;;;;;;5091061;28;20048;-91
2021/07/31 04:07:33;;;;;;;14.77;4.35;;;15.70;81.80;;;;;;5093569;28;20091;-94
2021/07/31 04:10:01;;;;;;;22.13;4.40;;;15.80;81.80;;;;;;5090083;28;20064;-93
2021/07/31 04:12:28;;;;;;;14.65;4.43;;;15.80;81.80;;;;;;5090244;28;20048;-93
2021/07/31 04:14:54;;;;;;;9.57;3.72;;;15.80;81.80;;;;;;5090673;28;20101;-93
2021/07/31 04:17:21;;;;;;;21.95;4.60;;;15.70;81.80;;;;;;5090877;28;20135;-93
2021/07/31 04:19:50;;;;;;;17.60;4.75;;;15.70;81.80;;;;;;5090566;28;20056;-92
2021/07/31 04:22:17;;;;;;;17.98;4.40;;;15.70;81.80;;;;;;5094516;28;20105;-91
2021/07/31 04:24:44;;;;;;;18.20;4.93;;;15.70;81.80;;;;;;5091823;28;20048;-90
2021/07/31 04:27:11;;;;;;;13.55;4.32;;;15.70;81.80;;;;;;5091215;28;20043;-92
2021/07/31 04:29:38;;;;;;;13.80;4.30;;;15.70;81.90;;;;;;5090668;28;20476;-92
2021/07/31 04:32:05;;;;;;;11.68;4.05;;;15.70;81.90;;;;;;5090993;28;20044;-92
2021/07/31 04:34:32;;;;;;;15.88;4.38;;;15.70;81.90;;;;;;5092813;28;20044;-93
2021/07/31 04:36:59;;;;;;;14.25;4.50;;;15.70;81.90;;;;;;5091470;28;20056;-91
2021/07/31 04:39:26;;;;;;;16.15;4.15;;;15.70;81.90;;;;;;5089245;28;20047;-92
2021/07/31 04:41:53;;;;;;;15.43;4.38;;;15.70;81.90;;;;;;5092141;28;20040;-91
2021/07/31 04:44:20;;;;;;;15.60;4.13;;;15.70;81.90;;;;;;5090414;28;20050;-93
2021/07/31 04:46:47;;;;;;;15.10;4.30;;;15.70;81.90;;;;;;5090656;28;20051;-93
2021/07/31 04:49:13;;;;;;;12.75;4.60;;;15.70;81.90;;;;;;5092584;28;20052;-94
2021/07/31 04:51:40;;;;;;;16.45;4.15;;;15.70;81.90;;;;;;5092901;28;20106;-92
2021/07/31 04:54:07;;;;;;;11.90;4.25;;;15.70;81.90;;;;;;5094420;28;20044;-93
2021/07/31 04:56:34;;;;;;;20.73;5.20;;;15.70;82.00;;;;;;5094285;28;20386;-91
2021/07/31 04:59:01;;;;;;;16.67;4.78;;;15.70;82.10;;;;;;5093968;28;20449;-93
2021/07/31 05:01:28;;;;;;;18.48;5.43;;;15.70;82.20;;;;;;5095921;28;20059;-91
2021/07/31 05:03:55;;;;;;;15.77;5.13;;;15.70;82.30;;;;;;5092870;28;20051;-93
2021/07/31 05:06:22;;;;;;;18.48;5.40;;;15.70;82.40;;;;;;5123017;27;20051;-91
2021/07/31 05:08:50;;;;;;;19.15;4.72;;;15.70;82.40;;;;;;5094372;28;20055;-90
2021/07/31 05:11:21;;;;;;;14.73;4.38;;;15.70;82.50;;;;;;5095502;28;20040;-92
2021/07/31 05:13:49;;;;;;;12.30;4.47;;;15.70;82.50;;;;;;5093064;28;20060;-88
2021/07/31 05:16:17;;;;;;;10.52;3.95;;;15.70;82.50;;;;;;5094970;28;20052;-90
2021/07/31 05:18:44;;;;;;;14.45;4.45;;;15.80;82.50;;;;;;5091166;28;20044;-90
2021/07/31 05:21:11;;;;;;;13.25;4.25;;;15.80;82.50;;;;;;5093263;28;20150;-93
2021/07/31 05:23:38;;;;;;;14.15;4.70;;;15.80;82.50;;;;;;5093329;28;20059;-93
2021/07/31 05:26:10;;;;;;;9.43;4.20;;;15.80;82.50;;;;;;5093638;28;20047;-91
2021/07/31 05:28:37;;;;;;;12.18;4.10;;;15.90;82.60;;;;;;5093736;28;20071;-92
2021/07/31 05:31:04;;;;;;;14.75;4.85;;;15.90;82.60;;;;;;5094640;28;20100;-94
2021/07/31 05:33:31;;;;;;;14.93;4.80;;;15.80;82.60;;;;;;5093328;28;20044;-92
2021/07/31 05:35:58;;;;;;;16.05;5.00;;;15.80;82.60;;;;;;5093951;28;20051;-93
2021/07/31 05:38:25;;;;;;;13.45;4.72;;;15.90;82.70;;;;;;5094075;28;20048;-93
2021/07/31 05:40:52;;;;;;;19.25;5.00;;;15.90;82.70;;;;;;5093988;28;20055;-90
2021/07/31 05:43:19;;;;;;;17.15;4.55;;;15.90;82.70;;;;;;5095801;28;20044;-92
2021/07/31 05:45:47;;;;;;;20.88;7.18;;;15.90;82.70;;;;;;5093220;28;20055;-91
2021/07/31 05:48:14;;;;;;;23.92;4.50;;;15.90;82.80;;;;;;5092537;28;20516;-91
2021/07/31 05:50:41;;;;;;;21.20;5.10;;;15.90;82.80;;;;;;5092974;28;20051;-91
2021/07/31 05:53:08;;;;;;;12.13;4.45;;;15.90;82.80;;;;;;5125688;27;20043;-91
2021/07/31 05:55:36;;;;;;;18.10;5.22;;;15.90;82.80;;;;;;5093364;28;20048;-91
2021/07/31 05:58:04;;;;;;;17.92;5.43;;;15.90;83.00;;;;;;5092004;28;20087;-92
2021/07/31 06:00:31;;;;;;;10.60;4.72;;;15.90;83.00;;;;;;5093834;28;20052;-92
2021/07/31 06:02:59;;;;;;;14.57;5.43;;;15.90;83.00;;;;;;5092559;28;20082;-92
2021/07/31 06:05:26;;;;;;;21.15;5.53;;;15.90;83.00;;;;;;5092066;28;20040;-93
2021/07/31 06:07:53;;;;;;;19.17;5.43;;;15.90;83.00;;;;;;5092909;28;20426;-95
2021/07/31 06:10:20;;;;;;;11.68;4.90;;;15.90;83.10;;;;;;5094395;28;20455;-92
2021/07/31 06:12:47;;;;;;;15.90;5.45;;;15.90;83.20;;;;;;5093014;28;20078;-95
2021/07/31 06:15:14;;;;;;;15.02;5.35;;;15.90;83.20;;;;;;5096093;28;20051;-95
2021/07/31 06:17:41;;;;;;;14.98;4.95;;;15.90;83.30;;;;;;5092883;28;20051;-93
2021/07/31 06:20:08;;;;;;;14.90;4.70;;;16.00;83.30;;;;;;5092139;28;20048;-92
2021/07/31 06:22:35;;;;;;;11.82;4.68;;;16.00;83.30;;;;;;5086878;28;20040;-93
2021/07/31 06:25:03;;;;;;;19.92;5.75;;;16.00;83.40;;;;;;5092253;28;20054;-93
2021/07/31 06:27:30;;;;;;;22.45;5.72;;;16.00;83.40;;;;;;5094305;28;20040;-93
2021/07/31 06:29:57;;;;;;;17.23;5.35;;;16.10;83.40;;;;;;5092936;28;20051;-92
2021/07/31 06:32:24;;;;;;;16.65;5.38;;;16.10;83.50;;;;;;5092837;28;20043;-94
2021/07/31 06:34:51;;;;;;;12.15;5.32;;;16.20;83.60;;;;;;5091240;28;20080;-94
2021/07/31 06:37:18;;;;;;;15.70;5.10;;;16.20;83.60;;;;;;5092451;28;20055;-92
2021/07/31 06:39:45;;;;;;;13.80;5.53;;;16.30;83.60;;;;;;5095273;28;20044;-92
2021/07/31 06:42:12;;;;;;;17.65;5.85;;;16.30;83.60;;;;;;5091631;28;20048;-92
2021/07/31 06:44:39;;;;;;;18.75;5.72;;;16.30;83.60;;;;;;5094731;28;20062;-92
2021/07/31 06:47:06;;;;;;;13.02;5.55;;;16.40;83.60;;;;;;5094032;28;20121;-92
2021/07/31 06:49:33;;;;;;;15.77;5.13;;;16.40;83.50;;;;;;5097167;28;20055;-94
2021/07/31 06:52:00;;;;;;;10.38;4.65;;;16.40;83.50;;;;;;5098070;28;20052;-91
2021/07/31 06:54:27;;;;;;;12.63;5.28;;;16.40;83.50;;;;;;5093977;28;20489;-95
2021/07/31 06:56:53;;;;;;;16.95;6.07;;;16.50;83.50;;;;;;5094886;28;20071;-92
2021/07/31 06:59:20;;;;;;;18.30;6.18;;;16.50;83.60;;;;;;5093599;28;20079;-91
2021/07/31 07:01:48;;;;;;;19.38;5.32;;;16.60;83.70;;;;;;5103459;28;20040;-91
2021/07/31 07:04:15;;;;;;;16.25;5.63;;;16.60;83.70;;;;;;5102214;28;20044;-93
2021/07/31 07:06:42;;;;;;;13.40;5.15;;;16.70;83.80;;;;;;5093427;28;20421;-94
2021/07/31 07:09:09;;;;;;;13.95;5.72;;;16.80;83.70;;;;;;5096687;28;20497;-94
2021/07/31 07:11:37;;;;;;;16.00;5.18;;;16.80;83.70;;;;;;5094801;28;20044;-94
2021/07/31 07:14:04;;;;;;;16.58;5.53;;;16.90;83.60;;;;;;5099928;28;20056;-93
2021/07/31 07:16:31;;;;;;;16.65;5.10;;;16.90;83.40;;;;;;5092908;28;20048;-93
2021/07/31 07:18:59;;;;;;;14.50;5.60;;;16.90;83.30;;;;;;5092014;28;20094;-90
2021/07/31 07:21:26;;;;;;;16.85;4.88;;;16.90;83.20;;;;;;5092717;28;20048;-94
2021/07/31 07:23:53;;;;;;;15.23;4.93;;;17.00;83.10;;;;;;5091919;28;20498;-95
2021/07/31 07:26:20;;;;;;;14.93;5.13;;;16.90;82.90;;;;;;5093976;28;20062;-94
2021/07/31 07:28:46;;;;;;;14.00;4.97;;;16.90;82.80;;;;;;5091453;28;20059;-93
2021/07/31 07:31:14;;;;;;;12.80;4.53;;;16.90;82.70;;;;;;5093576;28;20052;-94
2021/07/31 07:33:41;;;;;;;16.83;5.40;;;17.00;82.60;;;;;;5090853;28;20044;-91
2021/07/31 07:36:16;;;;;;;12.65;4.93;;;16.90;82.40;;;;;;5091542;28;20079;-94
2021/07/31 07:38:46;;;;;;;14.18;4.57;;;16.90;82.40;;;;;;5091871;28;20044;-95
2021/07/31 07:41:14;;;;;;;19.58;4.80;;;16.90;82.40;;;;;;5092151;28;20044;-92
2021/07/31 07:43:41;;;;;;;12.82;5.10;;;16.90;82.40;;;;;;5091458;28;20483;-92
2021/07/31 07:46:15;;;;;;;11.23;5.03;;;16.90;82.30;;;;;;5093294;28;20048;-89
2021/07/31 07:48:44;;;;;;;13.70;5.03;;;17.00;82.30;;;;;;5089277;28;20593;-94
2021/07/31 07:51:11;;;;;;;18.52;5.18;;;17.00;82.50;;;;;;5091643;28;20048;-92
2021/07/31 07:53:38;;;;;;;9.55;4.60;;;17.00;82.40;;;;;;5091950;28;20044;-91
2021/07/31 07:56:05;;;;;;;14.65;5.60;;;17.00;82.50;;;;;;5090588;28;20044;-93
2021/07/31 07:58:32;;;;;;;13.77;4.53;;;17.10;82.60;;;;;;5092455;28;20051;-91
2021/07/31 08:00:59;;;;;;;12.02;4.70;;;17.20;82.60;;;;;;5089857;28;20056;-91
2021/07/31 08:03:26;;;;;;;9.05;4.47;;;17.30;82.60;;;;;;5091955;28;20040;-93
2021/07/31 08:05:53;;;;;;;13.93;4.25;;;17.30;82.40;;;;;;5122779;27;20135;-95
2021/07/31 08:08:20;;;;;;;9.70;4.13;;;17.40;82.20;;;;;;5093391;28;20489;-94
2021/07/31 08:10:47;;;;;;;10.57;4.15;;;17.40;82.10;;;;;;5098509;28;20047;-95
2021/07/31 08:13:14;;;;;;;9.43;3.83;;;17.40;82.10;;;;;;5093672;28;20383;-93
2021/07/31 08:15:41;;;;;;;12.10;4.72;;;17.40;82.00;;;;;;5090815;28;20052;-93
2021/07/31 08:18:08;;;;;;;16.08;5.75;;;17.40;82.00;;;;;;5091118;28;20036;-91
2021/07/31 08:20:35;;;;;;;13.48;4.70;;;17.40;82.00;;;;;;5092551;28;20048;-94
2021/07/31 08:23:02;;;;;;;13.90;5.00;;;17.30;82.00;;;;;;5094490;28;20051;-93
2021/07/31 08:25:29;;;;;;;11.30;4.55;;;17.40;82.10;;;;;;5100545;28;20047;-92
2021/07/31 08:27:56;;;;;;;10.57;5.10;;;17.30;82.20;;;;;;5098718;28;20052;-94
2021/07/31 08:30:22;;;;;;;14.20;5.00;;;17.30;82.20;;;;;;5096441;28;20457;-91
2021/07/31 08:32:49;;;;;;;13.95;5.47;;;17.30;82.30;;;;;;5104440;28;20048;-92
2021/07/31 08:35:16;;;;;;;15.73;4.70;;;17.30;82.40;;;;;;5098316;28;20048;-92
2021/07/31 08:37:43;;;;;;;14.63;4.78;;;17.30;82.40;;;;;;5093972;28;20052;-94
2021/07/31 08:40:12;;;;;;;9.60;4.97;;;17.30;82.40;;;;;;5094569;28;20044;-82
2021/07/31 08:42:42;;;;;;;12.32;5.28;;;17.30;82.50;;;;;;5100718;28;20051;-95
2021/07/31 08:45:11;;;;;;;11.52;4.88;;;17.30;82.50;;;;;;5100609;28;20052;-93
2021/07/31 08:47:39;;;;;;;12.50;5.18;;;17.30;82.60;;;;;;5096153;28;20044;-94
2021/07/31 08:50:09;;;;;;;13.07;4.97;;;17.30;82.90;;;;;;5095357;28;20047;-95
2021/07/31 08:52:46;;;;;;;14.82;4.88;;;17.40;83.30;;;;;;5099127;28;20044;-92
2021/07/31 08:55:13;;;;;;;12.98;4.80;;;17.50;83.20;;;;;;5109019;28;20049;-94
2021/07/31 08:57:40;;;;;;;14.85;4.45;;;17.50;82.90;;;;;;5093553;28;20105;-92
2021/07/31 09:00:07;;;;;;;8.40;3.78;;;17.60;82.70;;;;;;5095578;28;20044;-92
2021/07/31 09:02:48;;;;;;;11.23;4.55;;;17.70;82.40;;;;;;5093239;28;20059;-92
2021/07/31 09:05:48;;;;;;;13.98;4.07;;;17.80;82.00;;;;;;5093631;28;20040;-93
2021/07/31 09:08:16;;;;;;;10.27;4.15;;;17.80;81.90;;;;;;4982755;28;20050;-93
2021/07/31 09:10:45;;;;;;;10.68;4.07;;;17.80;81.60;;;;;;5013699;28;20508;-91
2021/07/31 09:13:17;;;;;;;12.40;4.40;;;17.90;81.70;;;;;;5029737;28;20054;-93
2021/07/31 09:15:47;;;;;;;11.38;3.97;;;17.90;81.80;;;;;;4985290;28;20577;-91
2021/07/31 09:18:26;;;;;;;11.75;4.18;;;18.00;81.60;;;;;;4987996;28;20078;-93
2021/07/31 09:21:03;;;;;;;11.13;3.97;;;18.10;81.50;;;;;;5011562;28;20053;-92
2021/07/31 09:23:47;;;;;;;11.55;4.30;;;18.20;81.60;;;;;;5014927;28;20050;-93
2021/07/31 09:26:18;;;;;;;15.95;4.35;;;18.40;81.70;;;;;;5013674;28;20050;-93
2021/07/31 09:28:56;;;;;;;12.93;3.70;;;18.50;81.90;;;;;;5014536;28;20041;-94
2021/07/31 09:31:23;;;;;;;8.45;3.50;;;18.60;80.50;;;;;;4993861;28;20057;-95
2021/07/31 09:33:50;;;;;;;11.40;3.00;;;18.70;79.10;;;;;;5004686;28;20050;-96
2021/07/31 09:36:17;;;;;;;9.13;2.97;;;18.70;78.40;;;;;;5008239;28;20194;-94
2021/07/31 09:38:51;;;;;;;15.57;4.03;;;18.80;78.20;;;;;;5010827;28;20043;-93
2021/07/31 09:41:20;;;;;;;12.63;3.30;;;18.80;78.20;;;;;;5009600;28;20065;-94
2021/07/31 09:44:03;;;;;;;11.95;3.30;;;18.80;78.60;;;;;;5060340;28;20044;-93
2021/07/31 09:46:54;;;;;;;11.27;3.22;;;18.90;78.80;;;;;;5091787;28;20060;-90
2021/07/31 09:49:23;;;;;;;6.43;3.05;;;18.90;78.50;;;;;;5094982;28;20048;-91
2021/07/31 09:51:52;;;;;;;9.95;3.08;;;19.00;78.40;;;;;;5076849;28;20052;-92
2021/07/31 09:54:22;;;;;;;9.93;3.45;;;19.20;78.60;;;;;;5088471;28;20040;-91
2021/07/31 09:56:53;;;;;;;9.80;3.70;;;19.30;78.10;;;;;;5092724;28;20055;-93
2021/07/31 09:59:22;;;;;;;9.38;2.80;;;19.40;77.80;;;;;;5091100;28;20105;-90
2021/07/31 10:01:59;;;;;;;7.97;2.70;;;19.60;77.20;;;;;;5091843;28;20044;-92
2021/07/31 10:04:27;;;;;;;12.43;2.75;;;19.80;76.40;;;;;;5074076;28;20094;-90
2021/07/31 10:06:55;;;;;;;9.98;2.78;;;19.80;76.00;;;;;;5089521;28;20048;-93
2021/07/31 10:09:22;;;;;;;8.25;3.03;;;19.80;75.70;;;;;;5084813;28;20043;-93
2021/07/31 10:11:49;;;;;;;5.65;1.98;;;19.90;75.60;;;;;;5060252;28;20056;-90
2021/07/31 10:14:17;;;;;;;6.60;2.58;;;19.80;75.30;;;;;;5093734;28;20044;-96
2021/07/31 10:16:48;;;;;;;8.07;2.70;;;19.80;75.50;;;;;;5092913;28;20048;-92
2021/07/31 10:19:16;;;;;;;6.55;2.40;;;19.70;76.00;;;;;;5094687;28;20080;-93
2021/07/31 10:21:42;;;;;;;7.00;2.47;;;19.70;76.20;;;;;;5088517;28;20043;-88
2021/07/31 10:24:09;;;;;;;8.43;2.92;;;19.60;76.20;;;;;;5092381;28;20047;-92
2021/07/31 10:26:37;;;;;;;7.18;2.60;;;19.40;76.20;;;;;;5087989;28;20048;-90
2021/07/31 10:29:27;;;;;;;9.07;3.38;;;19.40;76.50;;;;;;5091948;28;20097;-91
2021/07/31 10:31:55;;;;;;;7.53;2.97;;;19.20;76.80;;;;;;5092381;28;20048;-92
2021/07/31 10:34:47;;;;;;;7.55;2.83;;;19.10;77.20;;;;;;5094267;28;20051;-93
2021/07/31 10:37:29;;;;;;;8.10;2.97;;;19.00;77.50;;;;;;5090514;28;20058;-93
2021/07/31 10:40:08;;;;;;;10.55;3.47;;;18.90;77.70;;;;;;5089232;28;20040;-91
2021/07/31 10:42:52;;;;;;;8.00;2.70;;;18.90;78.20;;;;;;5094624;28;20051;-88
2021/07/31 10:45:22;;;;;;;10.60;3.10;;;18.90;78.50;;;;;;5095107;28;20044;-88
2021/07/31 10:47:51;;;;;;;8.52;3.25;;;18.90;78.30;;;;;;5089586;28;20044;-93
2021/07/31 10:50:24;;;;;;;10.10;3.30;;;18.90;78.40;;;;;;5090806;28;20044;-90
2021/07/31 10:53:08;;;;;;;11.70;3.92;;;19.00;78.50;;;;;;5090822;28;20048;-90
2021/07/31 10:55:35;;;;;;;13.52;3.35;;;19.00;78.50;;;;;;5089582;28;20398;-89
2021/07/31 10:58:11;;;;;;;10.45;3.53;;;19.10;78.10;;;;;;5104139;28;20052;-92
2021/07/31 11:00:43;;;;;;;9.13;3.10;;;19.10;77.80;;;;;;5087044;28;20101;-91
2021/07/31 11:03:23;;;;;;;8.93;3.00;;;19.10;77.70;;;;;;5092153;28;20047;-92
2021/07/31 11:06:06;;;;;;;7.90;3.42;;;19.10;77.70;;;;;;5091759;28;20055;-93
2021/07/31 11:08:35;;;;;;;15.55;4.03;;;19.00;78.00;;;;;;5102592;28;20047;-93
2021/07/31 11:11:14;;;;;;;8.05;3.55;;;18.90;78.10;;;;;;5094149;28;20456;-91
2021/07/31 11:13:41;;;;;;;12.45;3.75;;;18.90;78.40;;;;;;5097831;28;20101;-95
2021/07/31 11:16:10;;;;;;;10.23;3.72;;;18.80;78.70;;;;;;5091266;28;20044;-95
2021/07/31 11:18:38;;;;;;;9.38;3.13;;;18.80;78.90;;;;;;5091620;28;20086;-92
2021/07/31 11:21:28;;;;;;;9.45;3.15;;;18.80;79.20;;;;;;5089492;28;20039;-90
2021/07/31 11:24:12;;;;;;;10.20;3.40;;;18.70;79.20;;;;;;5091432;28;20051;-90
2021/07/31 11:26:48;;;;;;;10.18;3.85;;;18.70;79.20;;;;;;5090487;28;20040;-91
2021/07/31 11:29:21;;;;;;;10.07;4.47;;;18.70;79.50;;;;;;5091497;28;20110;-94
2021/07/31 11:32:11;;;;;;;12.18;3.80;;;18.60;79.80;;;;;;5091889;28;20056;-93
2021/07/31 11:34:40;;;;;;;15.70;4.10;;;18.70;80.30;;;;;;5122638;27;20044;-93
2021/07/31 11:37:08;;;;;;;12.77;4.00;;;18.70;80.30;;;;;;5093303;28;20060;-94
2021/07/31 11:39:36;;;;;;;10.85;4.07;;;18.70;80.40;;;;;;5090628;28;20071;-90
2021/07/31 11:42:05;;;;;;;8.88;3.90;;;18.80;80.50;;;;;;5090824;28;20048;-93
2021/07/31 11:44:34;;;;;;;9.75;4.13;;;18.80;80.60;;;;;;5102597;28;20043;-90
2021/07/31 11:47:02;;;;;;;11.18;4.47;;;18.80;80.60;;;;;;5072892;28;20057;-93
2021/07/31 11:49:39;;;;;;;10.45;4.63;;;18.90;80.70;;;;;;5092327;28;20470;-89
2021/07/31 11:52:08;;;;;;;11.70;4.60;;;18.90;81.00;;;;;;5091941;28;20465;-89
2021/07/31 11:54:41;;;;;;;11.65;4.90;;;19.00;81.30;;;;;;5089938;28;20050;-92
2021/07/31 11:57:08;;;;;;;15.15;4.22;;;19.10;81.70;;;;;;5089573;28;20048;-89
2021/07/31 11:59:37;;;;;;;12.38;4.88;;;19.20;81.90;;;;;;5093517;28;20044;-91
2021/07/31 12:02:05;;;;;;;9.52;4.03;;;19.30;81.20;;;;;;5094455;28;20065;-90
2021/07/31 12:04:43;;;;;;;12.00;3.80;;;19.40;81.60;;;;;;5095342;28;20103;-90
2021/07/31 12:07:18;;;;;;;8.20;3.78;;;19.50;81.30;;;;;;5095176;28;20059;-88
2021/07/31 12:10:11;;;;;;;13.55;3.75;;;19.60;81.20;;;;;;5094110;28;20048;-89
2021/07/31 12:12:42;;;;;;;8.48;3.70;;;19.70;81.10;;;;;;5092320;28;20131;-90
2021/07/31 12:15:21;;;;;;;9.05;4.00;;;19.90;80.80;;;;;;5092710;28;20040;-89
2021/07/31 12:17:54;;;;;;;13.00;3.95;;;19.90;80.40;;;;;;5092318;28;20044;-90
2021/07/31 12:20:41;;;;;;;12.48;3.00;;;20.10;80.30;;;;;;5093501;28;20040;-89
2021/07/31 12:23:10;;;;;;;10.52;3.00;;;20.10;79.40;;;;;;5079012;28;20040;-88
2021/07/31 12:25:56;;;;;;;8.32;3.10;;;20.20;78.70;;;;;;5094503;28;20048;-87
2021/07/31 12:28:40;;;;;;;7.43;2.85;;;20.30;78.40;;;;;;5095279;28;20497;-87
2021/07/31 12:31:27;;;;;;;;;;;20.30;78.00;;;;;;5095706;28;20425;-87
2021/07/31 12:33:55;;;;;;;8.60;2.92;;;20.30;77.60;;;;;;5092935;28;19920;-87
2021/07/31 12:36:22;;;;;;;12.90;2.45;;;20.40;77.70;;;;;;5093110;28;20052;-87
2021/07/31 12:38:51;;;;;;;8.15;2.47;;;20.40;77.50;;;;;;5093230;28;20048;-89
2021/07/31 12:41:27;;;;;;;9.52;2.67;;;20.50;75.60;;;;;;5092593;28;20509;-87
2021/07/31 12:43:55;;;;;;;6.82;2.45;;;20.60;75.80;;;;;;5106914;28;20040;-87
2021/07/31 12:46:21;;;;;;;9.02;2.67;;;20.60;75.90;;;;;;5095282;28;20513;-87
2021/07/31 12:48:50;;;;;;;15.43;2.60;;;20.80;76.30;;;;;;5092431;28;20051;-89